Time;durP1;ratioP1;P1;durP2;ratioP2;P2;SDS_P1;SDS_P2;PMS_P1;PMS_P2;Temp;Humidity;BMP_temperature;BMP_pressure;BME280_temperature;BME280_humidity;BME280_pressure;Samples;Min_cycle;Max_cycle;Signal;HPM_P1;HPM_P2
2022/07/07 00:02:11;;;;;;;;;;;26.40;42.20;;;;;;5012327;28;20008;-60
2022/07/07 00:04:36;;;;;;;;;;;26.40;42.90;;;;;;5012771;28;19956;-61
2022/07/07 00:07:03;;;;;;;;;;;26.20;43.00;;;;;;5012922;28;19913;-61
2022/07/07 00:09:30;;;;;;;;;;;26.10;44.00;;;;;;5000074;28;19926;-61
2022/07/07 00:11:55;;;;;;;;;;;26.10;43.50;;;;;;5010311;28;19910;-62
2022/07/07 00:14:21;;;;;;;;;;;26.10;43.90;;;;;;5012856;28;20062;-60
2022/07/07 00:16:47;;;;;;;;;;;26.10;44.10;;;;;;5012353;28;20448;-62
2022/07/07 00:19:12;;;;;;;;;;;25.80;45.10;;;;;;5012662;28;20401;-61
2022/07/07 00:21:38;;;;;;;;;;;25.90;45.10;;;;;;5012611;28;19915;-63
2022/07/07 00:24:04;;;;;;;;;;;26.10;44.70;;;;;;5012573;28;20401;-61
2022/07/07 00:26:33;;;;;;;;;;;26.00;44.90;;;;;;5012802;28;19932;-64
2022/07/07 00:28:58;;;;;;;;;;;25.80;45.50;;;;;;5012328;28;19910;-61
2022/07/07 00:31:24;;;;;;;;;;;25.50;45.90;;;;;;5012944;28;19913;-61
2022/07/07 00:33:50;;;;;;;;;;;25.30;46.70;;;;;;5012322;28;19909;-63
2022/07/07 00:36:15;;;;;;;;;;;25.10;47.00;;;;;;5012322;28;20020;-62
2022/07/07 00:38:41;;;;;;;;;;;25.10;47.10;;;;;;5012271;28;19910;-62
2022/07/07 00:41:06;;;;;;;;;;;25.20;46.80;;;;;;5012474;28;19960;-60
2022/07/07 00:43:40;;;;;;;;;;;25.20;46.70;;;;;;5012437;28;19948;-62
2022/07/07 00:46:07;;;;;;;;;;;25.40;46.20;;;;;;5011947;28;20348;-60
2022/07/07 00:48:33;;;;;;;;;;;25.60;45.80;;;;;;5012493;28;19916;-62
2022/07/07 00:50:59;;;;;;;;;;;25.50;46.70;;;;;;5010871;28;19910;-63
2022/07/07 00:53:25;;;;;;;;;;;25.50;46.00;;;;;;5012391;28;19910;-60
2022/07/07 00:55:50;;;;;;;;;;;25.40;46.30;;;;;;5012048;28;20352;-61
2022/07/07 00:58:16;;;;;;;;;;;25.50;46.10;;;;;;5012314;28;19921;-60
2022/07/07 01:00:41;;;;;;;;;;;25.70;45.70;;;;;;5012083;28;19956;-62
2022/07/07 01:03:08;;;;;;;;;;;25.70;45.20;;;;;;5012320;28;20353;-61
2022/07/07 01:05:35;;;;;;;;;;;25.60;45.50;;;;;;5012027;28;20396;-65
2022/07/07 01:08:02;;;;;;;;;;;25.40;45.80;;;;;;5012211;28;19941;-65
2022/07/07 01:10:28;;;;;;;;;;;25.20;46.50;;;;;;5012019;28;20793;-65
2022/07/07 01:12:54;;;;;;;;;;;25.20;46.00;;;;;;5012315;28;19997;-64
2022/07/07 01:15:19;;;;;;;;;;;25.40;45.90;;;;;;5014883;28;19916;-65
2022/07/07 01:17:45;;;;;;;;;;;25.40;45.40;;;;;;5016082;28;19976;-66
2022/07/07 01:20:13;;;;;;;;;;;25.40;45.30;;;;;;5015944;28;20000;-64
2022/07/07 01:22:39;;;;;;;;;;;25.30;45.30;;;;;;5015811;28;20361;-63
2022/07/07 01:25:05;;;;;;;;;;;25.10;45.70;;;;;;5015776;28;19920;-66
2022/07/07 01:27:31;;;;;;;;;;;25.30;45.60;;;;;;5015724;28;20427;-65
2022/07/07 01:29:57;;;;;;;;;;;25.40;45.10;;;;;;5015776;28;20003;-63
2022/07/07 01:32:23;;;;;;;;;;;25.30;45.00;;;;;;5015592;28;19909;-63
2022/07/07 01:34:49;;;;;;;;;;;25.30;45.40;;;;;;5015595;28;19932;-64
2022/07/07 01:37:16;;;;;;;;;;;25.20;45.80;;;;;;5015483;28;20512;-61
2022/07/07 01:39:42;;;;;;;;;;;24.90;46.10;;;;;;5015440;28;19956;-64
2022/07/07 01:42:08;;;;;;;;;;;24.90;46.20;;;;;;5015435;28;20003;-63
2022/07/07 01:44:34;;;;;;;;;;;24.90;46.30;;;;;;5015414;28;20397;-64
2022/07/07 01:47:00;;;;;;;;;;;24.60;46.90;;;;;;5015420;28;20424;-63
2022/07/07 01:49:27;;;;;;;;;;;24.50;47.10;;;;;;5015344;28;19913;-62
2022/07/07 01:51:53;;;;;;;;;;;24.70;47.20;;;;;;5015251;28;20351;-65
2022/07/07 01:54:18;;;;;;;;;;;24.80;46.90;;;;;;5015151;28;19915;-63
2022/07/07 01:56:45;;;;;;;;;;;25.00;46.50;;;;;;5015253;28;20285;-61
2022/07/07 01:59:11;;;;;;;;;;;24.90;46.70;;;;;;5015004;28;20365;-61
2022/07/07 02:01:37;;;;;;;;;;;24.50;46.70;;;;;;5015134;28;19917;-61
2022/07/07 02:04:02;;;;;;;;;;;24.40;47.20;;;;;;5015304;28;20012;-62
2022/07/07 02:06:28;;;;;;;;;;;24.30;47.60;;;;;;5015149;28;19910;-61
2022/07/07 02:08:53;;;;;;;;;;;24.70;47.20;;;;;;5014901;28;19921;-62
2022/07/07 02:11:19;;;;;;;;;;;24.80;46.10;;;;;;5014999;28;19914;-60
2022/07/07 02:13:46;;;;;;;;;;;25.00;45.90;;;;;;5014897;28;19919;-60
2022/07/07 02:16:12;;;;;;;;;;;24.70;45.70;;;;;;5014730;28;19924;-63
2022/07/07 02:18:39;;;;;;;;;;;24.50;46.10;;;;;;5015063;28;19924;-65
2022/07/07 02:21:05;;;;;;;;;;;24.50;46.10;;;;;;5014890;28;19944;-62
2022/07/07 02:23:32;;;;;;;;;;;24.40;46.10;;;;;;5014690;28;20388;-62
2022/07/07 02:25:57;;;;;;;;;;;24.60;46.00;;;;;;5014149;28;19910;-63
2022/07/07 02:28:23;;;;;;;;;;;24.80;45.80;;;;;;5014546;28;19913;-66
2022/07/07 02:30:50;;;;;;;;;;;24.90;45.10;;;;;;5014576;28;20404;-62
2022/07/07 02:33:15;;;;;;;;;;;25.10;44.60;;;;;;5014745;28;20416;-63
2022/07/07 02:35:41;;;;;;;;;;;25.30;43.90;;;;;;5014175;28;19918;-61
2022/07/07 02:38:06;;;;;;;;;;;25.40;43.70;;;;;;5014544;28;19920;-61
2022/07/07 02:40:32;;;;;;;;;;;25.40;43.20;;;;;;5013080;28;19919;-64
2022/07/07 02:42:58;;;;;;;;;;;25.40;43.40;;;;;;5014389;28;19909;-64
2022/07/07 02:45:23;;;;;;;;;;;25.50;43.70;;;;;;5014209;28;19916;-65
2022/07/07 02:47:49;;;;;;;;;;;25.40;43.20;;;;;;5014283;28;20369;-66
2022/07/07 02:50:14;;;;;;;;;;;25.50;43.40;;;;;;5014376;28;19916;-66
2022/07/07 02:52:40;;;;;;;;;;;25.60;42.90;;;;;;5014140;28;19971;-62
2022/07/07 02:55:06;;;;;;;;;;;25.70;42.40;;;;;;5014098;28;20325;-60
2022/07/07 02:57:31;;;;;;;;;;;25.70;42.70;;;;;;5014083;28;19921;-61
2022/07/07 02:59:57;;;;;;;;;;;25.70;42.50;;;;;;5014107;28;19910;-61
2022/07/07 03:02:22;;;;;;;;;;;25.80;42.40;;;;;;5013982;28;19913;-63
2022/07/07 03:04:48;;;;;;;;;;;25.40;42.10;;;;;;5013922;28;20008;-61
2022/07/07 03:07:14;;;;;;;;;;;25.40;43.00;;;;;;5014064;28;20271;-61
2022/07/07 03:09:39;;;;;;;;;;;25.20;42.60;;;;;;5013792;28;20270;-64
2022/07/07 03:12:05;;;;;;;;;;;25.20;42.80;;;;;;5013694;28;19913;-66
2022/07/07 03:14:31;;;;;;;;;;;25.10;42.70;;;;;;5013606;28;20357;-64
2022/07/07 03:16:56;;;;;;;;;;;25.00;44.00;;;;;;5013644;28;19932;-66
2022/07/07 03:19:22;;;;;;;;;;;25.10;43.60;;;;;;5013726;28;20293;-64
2022/07/07 03:21:47;;;;;;;;;;;24.90;45.90;;;;;;5013512;28;19909;-65
2022/07/07 03:24:13;;;;;;;;;;;24.10;51.50;;;;;;5013660;28;19913;-64
2022/07/07 03:26:38;;;;;;;;;;;23.20;55.80;;;;;;5013462;28;19910;-64
2022/07/07 03:29:04;;;;;;;;;;;22.60;58.40;;;;;;5013461;28;19916;-64
2022/07/07 03:31:29;;;;;;;;;;;22.50;59.60;;;;;;5013421;28;20381;-66
2022/07/07 03:33:55;;;;;;;;;;;22.50;60.00;;;;;;5013424;28;19917;-64
2022/07/07 03:36:21;;;;;;;;;;;22.50;60.30;;;;;;5012519;28;19923;-63
2022/07/07 03:38:46;;;;;;;;;;;22.20;62.10;;;;;;5013357;28;19964;-63
2022/07/07 03:41:12;;;;;;;;;;;21.70;64.60;;;;;;5013284;28;19913;-63
2022/07/07 03:43:37;;;;;;;;;;;21.70;65.60;;;;;;5013310;28;19913;-64
2022/07/07 03:46:03;;;;;;;;;;;22.00;65.60;;;;;;5013362;28;20389;-62
2022/07/07 03:48:31;;;;;;;;;;;22.20;65.40;;;;;;5013197;28;19971;-62
2022/07/07 03:50:57;;;;;;;;;;;22.20;64.20;;;;;;5013121;28;19971;-64
2022/07/07 03:53:22;;;;;;;;;;;22.50;63.70;;;;;;5013179;28;19928;-64
2022/07/07 03:55:48;;;;;;;;;;;22.80;62.50;;;;;;5012870;28;20328;-63
2022/07/07 03:58:13;;;;;;;;;;;22.90;62.10;;;;;;5012881;28;19918;-63
2022/07/07 04:00:39;;;;;;;;;;;22.60;63.80;;;;;;5013164;28;19947;-62
2022/07/07 04:03:04;;;;;;;;;;;22.40;65.00;;;;;;5012780;28;20413;-64
2022/07/07 04:05:30;;;;;;;;;;;22.50;64.20;;;;;;5012755;28;19921;-64
2022/07/07 04:07:56;;;;;;;;;;;22.50;64.90;;;;;;5012853;28;20121;-62
2022/07/07 04:10:21;;;;;;;;;;;22.00;66.00;;;;;;5012608;28;19963;-62
2022/07/07 04:12:47;;;;;;;;;;;22.10;65.50;;;;;;5012830;28;19957;-63
2022/07/07 04:15:12;;;;;;;;;;;21.50;68.80;;;;;;5012407;28;19921;-62
2022/07/07 04:17:38;;;;;;;;;;;21.50;68.80;;;;;;5013235;28;19914;-62
2022/07/07 04:20:04;;;;;;;;;;;21.60;69.00;;;;;;5012583;28;20262;-65
2022/07/07 04:22:30;;;;;;;;;;;21.30;66.90;;;;;;5012554;28;19909;-62
2022/07/07 04:24:55;;;;;;;;;;;21.60;67.00;;;;;;5012379;28;19916;-64
2022/07/07 04:27:21;;;;;;;;;;;21.70;67.00;;;;;;5012471;28;19914;-64
2022/07/07 04:29:47;;;;;;;;;;;21.60;67.50;;;;;;5012542;28;19979;-63
2022/07/07 04:32:13;;;;;;;;;;;21.60;68.00;;;;;;5012404;28;19909;-64
2022/07/07 04:34:38;;;;;;;;;;;21.50;66.50;;;;;;5012561;28;19916;-63
2022/07/07 04:37:04;;;;;;;;;;;21.70;65.10;;;;;;5012241;28;19953;-65
2022/07/07 04:39:29;;;;;;;;;;;21.80;64.80;;;;;;5012286;28;20011;-65
2022/07/07 04:41:55;;;;;;;;;;;21.80;64.50;;;;;;5012351;28;19914;-64
2022/07/07 04:44:21;;;;;;;;;;;21.80;63.60;;;;;;5012466;28;19940;-63
2022/07/07 04:46:46;;;;;;;;;;;21.70;64.40;;;;;;5012514;28;20335;-63
2022/07/07 04:49:12;;;;;;;;;;;21.60;65.20;;;;;;5015589;28;20329;-64
2022/07/07 04:51:37;;;;;;;;;;;21.60;65.10;;;;;;5016889;28;19913;-62
2022/07/07 04:54:03;;;;;;;;;;;21.40;66.10;;;;;;5031397;28;19910;-62
2022/07/07 04:56:29;;;;;;;;;;;21.50;65.20;;;;;;5016191;28;19917;-65
2022/07/07 04:58:54;;;;;;;;;;;21.50;65.80;;;;;;5016371;28;19921;-64
2022/07/07 05:01:20;;;;;;;;;;;21.60;65.10;;;;;;5016204;28;19996;-62
2022/07/07 05:03:45;;;;;;;;;;;21.70;64.50;;;;;;5016331;28;19916;-63
2022/07/07 05:06:11;;;;;;;;;;;21.50;65.00;;;;;;5016207;28;20369;-64
2022/07/07 05:08:37;;;;;;;;;;;21.60;65.40;;;;;;5015846;28;19925;-63
2022/07/07 05:11:03;;;;;;;;;;;21.20;66.90;;;;;;5016297;28;19909;-63
2022/07/07 05:13:29;;;;;;;;;;;21.30;69.00;;;;;;5016028;28;19964;-64
2022/07/07 05:15:54;;;;;;;;;;;21.50;69.30;;;;;;5016259;28;19963;-63
2022/07/07 05:18:20;;;;;;;;;;;21.30;69.00;;;;;;5015843;28;20063;-66
2022/07/07 05:20:45;;;;;;;;;;;21.00;70.10;;;;;;5015962;28;19909;-65
2022/07/07 05:23:11;;;;;;;;;;;20.60;72.40;;;;;;5015907;28;19920;-64
2022/07/07 05:25:37;;;;;;;;;;;20.70;72.20;;;;;;5015616;28;20378;-64
2022/07/07 05:28:02;;;;;;;;;;;20.80;71.00;;;;;;5015850;28;19957;-63
2022/07/07 05:30:28;;;;;;;;;;;20.90;70.90;;;;;;5015892;28;20378;-62
2022/07/07 05:32:53;;;;;;;;;;;20.90;70.70;;;;;;5015839;28;19956;-65
2022/07/07 05:35:19;;;;;;;;;;;20.90;70.90;;;;;;5015432;28;20281;-63
2022/07/07 05:37:46;;;;;;;;;;;21.10;70.30;;;;;;5015524;28;19917;-64
2022/07/07 05:40:12;;;;;;;;;;;20.90;69.50;;;;;;5015886;28;19921;-63
2022/07/07 05:42:38;;;;;;;;;;;21.10;70.10;;;;;;5014187;28;20259;-64
2022/07/07 05:45:04;;;;;;;;;;;21.10;68.80;;;;;;5015313;28;19916;-64
2022/07/07 05:47:30;;;;;;;;;;;21.10;70.30;;;;;;5015456;28;19916;-63
2022/07/07 05:49:56;;;;;;;;;;;21.40;68.70;;;;;;5015396;28;19909;-65
2022/07/07 05:52:21;;;;;;;;;;;21.30;68.50;;;;;;5015094;28;20007;-66
2022/07/07 05:54:47;;;;;;;;;;;21.30;69.60;;;;;;5015020;28;19913;-62
2022/07/07 05:57:14;;;;;;;;;;;21.30;69.50;;;;;;5015063;28;20020;-64
2022/07/07 05:59:40;;;;;;;;;;;21.40;68.50;;;;;;5014244;28;19909;-61
2022/07/07 06:02:05;;;;;;;;;;;21.70;67.10;;;;;;5015206;28;19940;-62
2022/07/07 06:04:31;;;;;;;;;;;21.90;65.80;;;;;;5015026;28;20413;-62
2022/07/07 06:06:56;;;;;;;;;;;21.90;65.10;;;;;;5015204;28;19925;-65
2022/07/07 06:09:23;;;;;;;;;;;21.90;66.50;;;;;;5014955;28;19928;-63
2022/07/07 06:11:49;;;;;;;;;;;21.80;66.50;;;;;;5015102;28;19917;-63
2022/07/07 06:14:15;;;;;;;;;;;21.80;66.40;;;;;;5014912;28;19913;-65
2022/07/07 06:16:43;;;;;;;;;;;21.80;66.60;;;;;;5014311;28;20409;-62
2022/07/07 06:19:10;;;;;;;;;;;21.80;66.40;;;;;;5014709;28;20105;-63
2022/07/07 06:21:36;;;;;;;;;;;21.90;66.50;;;;;;5014529;28;19909;-64
2022/07/07 06:24:01;;;;;;;;;;;21.80;66.10;;;;;;5014722;28;19921;-63
2022/07/07 06:26:27;;;;;;;;;;;21.70;66.40;;;;;;5014609;28;20389;-62
2022/07/07 06:28:53;;;;;;;;;;;21.60;67.20;;;;;;5014514;28;19928;-64
2022/07/07 06:31:18;;;;;;;;;;;21.90;66.80;;;;;;5014594;28;20269;-63
2022/07/07 06:33:44;;;;;;;;;;;22.00;65.80;;;;;;5014300;28;19920;-62
2022/07/07 06:36:10;;;;;;;;;;;21.90;65.80;;;;;;5013837;28;19929;-64
2022/07/07 06:38:35;;;;;;;;;;;21.70;67.20;;;;;;5013127;28;19910;-63
2022/07/07 06:41:01;;;;;;;;;;;21.60;67.40;;;;;;5013062;28;20317;-64
2022/07/07 06:43:26;;;;;;;;;;;21.70;67.40;;;;;;5013262;28;19917;-62
2022/07/07 06:45:52;;;;;;;;;;;21.90;67.50;;;;;;5013119;28;19910;-64
2022/07/07 06:48:18;;;;;;;;;;;21.90;66.40;;;;;;5013814;28;19917;-63
2022/07/07 06:50:43;;;;;;;;;;;21.90;66.10;;;;;;5014148;28;19921;-66
2022/07/07 06:53:09;;;;;;;;;;;21.90;66.10;;;;;;5010711;28;19914;-65
2022/07/07 06:55:34;;;;;;;;;;;22.10;65.40;;;;;;5009091;28;19920;-63
2022/07/07 06:58:02;;;;;;;;;;;22.50;64.00;;;;;;5002075;28;20445;-62
2022/07/07 07:00:28;;;;;;;;;;;22.60;63.30;;;;;;4995939;28;19910;-63
2022/07/07 07:02:54;;;;;;;;;;;22.80;63.40;;;;;;5012572;28;19920;-67
2022/07/07 07:05:19;;;;;;;;;;;22.90;62.10;;;;;;5012358;28;19913;-65
2022/07/07 07:07:45;;;;;;;;;;;23.10;61.10;;;;;;5012379;28;19917;-65
2022/07/07 07:10:11;;;;;;;;;;;23.00;61.80;;;;;;5012984;28;19922;-68
2022/07/07 07:12:36;;;;;;;;;;;23.00;62.10;;;;;;4998560;28;19921;-63
2022/07/07 07:15:02;;;;;;;;;;;23.10;61.40;;;;;;5004514;28;19956;-63
2022/07/07 07:17:27;;;;;;;;;;;23.30;61.40;;;;;;5013056;28;19924;-64
2022/07/07 07:19:53;;;;;;;;;;;23.50;60.70;;;;;;5013352;28;19924;-62
2022/07/07 07:22:19;;;;;;;;;;;23.50;61.70;;;;;;5012110;28;19932;-62
2022/07/07 07:24:44;;;;;;;;;;;23.70;60.80;;;;;;5012053;28;19914;-63
2022/07/07 07:27:10;;;;;;;;;;;24.00;59.10;;;;;;5012286;28;19920;-64
2022/07/07 07:29:35;;;;;;;;;;;24.00;59.20;;;;;;5012252;28;20420;-63
2022/07/07 07:32:01;;;;;;;;;;;24.10;58.60;;;;;;5012806;28;19956;-64
2022/07/07 07:34:27;;;;;;;;;;;24.30;58.50;;;;;;5012839;28;19913;-65
2022/07/07 07:36:53;;;;;;;;;;;24.40;58.50;;;;;;5013348;28;19984;-65
2022/07/07 07:39:18;;;;;;;;;;;24.60;58.30;;;;;;5013165;28;19913;-62
2022/07/07 07:41:44;;;;;;;;;;;24.90;56.80;;;;;;5012588;28;20381;-63
2022/07/07 07:44:10;;;;;;;;;;;25.00;56.50;;;;;;5011654;28;19956;-64
2022/07/07 07:46:36;;;;;;;;;;;25.20;56.80;;;;;;5011831;28;19909;-63
2022/07/07 07:49:05;;;;;;;;;;;25.40;56.00;;;;;;5011614;28;19909;-65
2022/07/07 07:51:31;;;;;;;;;;;25.60;55.70;;;;;;5012014;28;20352;-63
2022/07/07 07:53:57;;;;;;;;;;;25.70;55.30;;;;;;5011749;28;20381;-65
2022/07/07 07:56:23;;;;;;;;;;;25.80;54.90;;;;;;5011651;28;19921;-64
2022/07/07 07:58:48;;;;;;;;;;;25.90;54.60;;;;;;5008523;28;20336;-64
2022/07/07 08:01:14;;;;;;;;;;;26.00;54.10;;;;;;5002982;28;19921;-64
2022/07/07 08:03:39;;;;;;;;;;;25.80;52.60;;;;;;5011312;28;19920;-62
2022/07/07 08:06:05;;;;;;;;;;;25.80;52.70;;;;;;5009502;28;19914;-63
2022/07/07 08:08:30;;;;;;;;;;;25.90;53.30;;;;;;5011431;28;19930;-64
2022/07/07 08:10:56;;;;;;;;;;;26.10;52.90;;;;;;5007140;28;19984;-62
2022/07/07 08:13:22;;;;;;;;;;;26.30;52.40;;;;;;5011142;28;19917;-63
2022/07/07 08:15:48;;;;;;;;;;;26.40;52.30;;;;;;5007131;28;19924;-64
2022/07/07 08:18:13;;;;;;;;;;;26.70;52.20;;;;;;5006033;28;19921;-64
2022/07/07 08:20:39;;;;;;;;;;;26.90;50.30;;;;;;5004647;28;19920;-65
2022/07/07 08:23:05;;;;;;;;;;;27.10;49.40;;;;;;5010972;28;20052;-63
2022/07/07 08:25:30;;;;;;;;;;;27.10;48.70;;;;;;5010389;28;19913;-62
2022/07/07 08:27:56;;;;;;;;;;;27.20;48.30;;;;;;5012122;28;19921;-61
2022/07/07 08:30:21;;;;;;;;;;;27.20;48.10;;;;;;5012148;28;19910;-66
2022/07/07 08:32:47;;;;;;;;;;;27.30;48.00;;;;;;5012131;28;19925;-62
2022/07/07 08:35:13;;;;;;;;;;;27.20;48.00;;;;;;5011862;28;19918;-67
2022/07/07 08:37:39;;;;;;;;;;;27.20;47.60;;;;;;5010818;28;19929;-63
2022/07/07 08:40:05;;;;;;;;;;;27.30;47.30;;;;;;5011143;28;20377;-62
2022/07/07 08:42:31;;;;;;;;;;;27.30;47.20;;;;;;5010938;28;20379;-60
2022/07/07 08:44:56;;;;;;;;;;;27.30;46.70;;;;;;5010800;28;19924;-61
2022/07/07 08:47:23;;;;;;;;;;;27.30;46.70;;;;;;5011484;28;19949;-62
2022/07/07 08:49:49;;;;;;;;;;;27.50;46.80;;;;;;5012190;28;20330;-62
2022/07/07 08:52:15;;;;;;;;;;;27.50;46.20;;;;;;5012252;28;20441;-64
2022/07/07 08:54:41;;;;;;;;;;;27.70;46.60;;;;;;5012737;28;19956;-64
2022/07/07 08:57:07;;;;;;;;;;;27.70;46.80;;;;;;5012930;28;19927;-61
2022/07/07 08:59:33;;;;;;;;;;;27.70;46.60;;;;;;5012765;28;19914;-61
2022/07/07 09:01:59;;;;;;;;;;;27.80;46.20;;;;;;5013078;28;20363;-63
2022/07/07 09:04:25;;;;;;;;;;;27.80;46.10;;;;;;5012046;28;19910;-63
2022/07/07 09:07:04;;;;;;;;;;;28.00;45.80;;;;;;5011972;28;20013;-63
2022/07/07 09:09:36;;;;;;;;;;;28.10;44.80;;;;;;5011366;28;20373;-62
2022/07/07 09:12:02;;;;;;;;;;;28.30;44.30;;;;;;5010976;28;20000;-62
2022/07/07 09:14:34;;;;;;;;;;;28.40;43.90;;;;;;5002601;28;19956;-63
2022/07/07 09:16:59;;;;;;;;;;;28.40;43.80;;;;;;5006370;28;20024;-62
2022/07/07 09:19:25;;;;;;;;;;;28.30;43.30;;;;;;5009340;28;20009;-62
2022/07/07 09:21:50;;;;;;;;;;;28.30;43.30;;;;;;5009819;28;19921;-63
2022/07/07 09:24:16;;;;;;;;;;;28.20;43.20;;;;;;5011757;28;20381;-60
2022/07/07 09:26:44;;;;;;;;;;;28.20;42.90;;;;;;5011455;28;19939;-61
2022/07/07 09:29:14;;;;;;;;;;;28.20;42.70;;;;;;5010637;28;19944;-63
2022/07/07 09:31:58;;;;;;;;;;;28.20;41.90;;;;;;5010521;28;19920;-61
2022/07/07 09:34:28;;;;;;;;;;;28.20;41.50;;;;;;5010766;28;19914;-62
2022/07/07 09:39:38;;;;;;;;;;;28.30;40.70;;;;;;5015359;28;19981;-63
2022/07/07 09:42:19;;;;;;;;;;;28.40;41.70;;;;;;5014419;28;19933;-63
2022/07/07 09:45:04;;;;;;;;;;;28.50;41.90;;;;;;5014059;28;19920;-66
2022/07/07 09:47:30;;;;;;;;;;;28.50;41.60;;;;;;5014104;28;20322;-64
2022/07/07 09:49:58;;;;;;;;;;;28.50;38.90;;;;;;5014107;28;20005;-63
2022/07/07 09:52:24;;;;;;;;;;;28.50;39.50;;;;;;5014743;28;19959;-63
2022/07/07 09:54:50;;;;;;;;;;;28.60;40.30;;;;;;5015269;28;20337;-62
2022/07/07 09:57:16;;;;;;;;;;;28.60;41.40;;;;;;5015050;28;19960;-62
2022/07/07 09:59:42;;;;;;;;;;;28.60;40.90;;;;;;5015001;28;19916;-62
2022/07/07 10:02:19;;;;;;;;;;;28.60;41.10;;;;;;5015038;28;20306;-62
2022/07/07 10:04:46;;;;;;;;;;;28.70;40.30;;;;;;5015134;28;19936;-61
2022/07/07 10:07:13;;;;;;;;;;;28.70;41.60;;;;;;5014888;28;19964;-61
2022/07/07 10:09:44;;;;;;;;;;;28.70;40.50;;;;;;5014752;28;20361;-61
2022/07/07 10:12:10;;;;;;;;;;;28.70;40.60;;;;;;5014532;28;19914;-62
2022/07/07 10:14:40;;;;;;;;;;;28.80;40.00;;;;;;5014413;28;19913;-62
2022/07/07 10:17:05;;;;;;;;;;;28.80;40.10;;;;;;5014545;28;20000;-62
2022/07/07 10:19:31;;;;;;;;;;;28.80;38.80;;;;;;5013549;28;19941;-64
2022/07/07 10:21:57;;;;;;;;;;;28.80;38.50;;;;;;5013703;28;20265;-60
2022/07/07 10:24:26;;;;;;;;;;;28.90;39.80;;;;;;5014748;28;20280;-59
2022/07/07 10:26:52;;;;;;;;;;;28.90;38.70;;;;;;5014559;28;19917;-60
2022/07/07 10:29:38;;;;;;;;;;;28.90;39.10;;;;;;5012829;28;19914;-61
2022/07/07 10:32:04;;;;;;;;;;;28.90;37.20;;;;;;5014727;28;19921;-65
2022/07/07 10:34:33;;;;;;;;;;;28.80;37.30;;;;;;5013334;28;19913;-62
2022/07/07 10:36:59;;;;;;;;;;;28.80;38.20;;;;;;5000204;28;20004;-63
2022/07/07 10:39:26;;;;;;;;;;;28.80;38.90;;;;;;5011912;28;19932;-62
2022/07/07 10:42:10;;;;;;;;;;;28.80;38.30;;;;;;4994403;28;20462;-64
2022/07/07 10:44:37;;;;;;;;;;;28.80;38.30;;;;;;4997166;28;19919;-62
2022/07/07 10:47:03;;;;;;;;;;;28.80;38.50;;;;;;5013242;28;20000;-63
2022/07/07 10:49:38;;;;;;;;;;;28.90;36.80;;;;;;5013548;28;20421;-68
2022/07/07 10:52:11;;;;;;;;;;;28.80;36.80;;;;;;5012459;28;19993;-64
2022/07/07 10:54:41;;;;;;;;;;;28.90;37.50;;;;;;5012175;28;19960;-63
2022/07/07 10:57:06;;;;;;;;;;;28.90;36.80;;;;;;5002192;28;19923;-65
2022/07/07 10:59:50;;;;;;;;;;;28.90;36.20;;;;;;5013305;28;20012;-63
2022/07/07 11:02:16;;;;;;;;;;;28.90;36.00;;;;;;5002456;28;19914;-65
2022/07/07 11:04:41;;;;;;;;;;;29.00;36.10;;;;;;5013229;28;20282;-63
2022/07/07 11:07:10;;;;;;;;;;;29.10;35.90;;;;;;4993868;28;19918;-65
2022/07/07 11:09:54;;;;;;;;;;;29.10;35.10;;;;;;4993837;28;19925;-60
2022/07/07 11:12:38;;;;;;;;;;;29.00;34.90;;;;;;5000653;28;20007;-63
2022/07/07 11:15:21;;;;;;;;;;;29.00;35.20;;;;;;4999225;28;19914;-63
2022/07/07 11:17:48;;;;;;;;;;;29.00;35.60;;;;;;5013184;28;20065;-64
2022/07/07 11:20:14;;;;;;;;;;;29.00;35.50;;;;;;4997552;28;19948;-63
2022/07/07 11:22:44;;;;;;;;;;;29.00;36.10;;;;;;4993742;28;20043;-63
2022/07/07 11:25:10;;;;;;;;;;;29.10;36.80;;;;;;4995669;28;19965;-65
2022/07/07 11:27:36;;;;;;;;;;;29.10;37.10;;;;;;4999296;28;19914;-61
2022/07/07 11:30:03;;;;;;;;;;;29.20;40.00;;;;;;4995883;28;19917;-62
2022/07/07 11:32:39;;;;;;;;;;;29.20;38.80;;;;;;5000699;28;19913;-61
2022/07/07 11:35:05;;;;;;;;;;;29.20;38.80;;;;;;4999383;28;20278;-60
2022/07/07 11:37:31;;;;;;;;;;;29.10;39.50;;;;;;5010240;28;19925;-60
2022/07/07 11:39:57;;;;;;;;;;;29.10;38.60;;;;;;5006296;28;20028;-61
2022/07/07 11:42:24;;;;;;;;;;;29.10;39.30;;;;;;5007765;28;19909;-61
2022/07/07 11:44:50;;;;;;;;;;;29.10;39.30;;;;;;5009740;28;19914;-62
2022/07/07 11:47:15;;;;;;;;;;;29.10;40.50;;;;;;5009627;28;19921;-61
2022/07/07 11:49:41;;;;;;;;;;;29.00;39.60;;;;;;5009247;28;20040;-63
2022/07/07 11:52:16;;;;;;;;;;;29.00;39.60;;;;;;5006788;28;19918;-63
2022/07/07 11:54:45;;;;;;;;;;;29.00;38.90;;;;;;5007760;28;19913;-61
2022/07/07 11:57:10;;;;;;;;;;;29.00;38.70;;;;;;5009793;28;19972;-63
2022/07/07 11:59:36;;;;;;;;;;;29.00;39.00;;;;;;5010690;28;19909;-62
2022/07/07 12:02:14;;;;;;;;;;;28.90;40.60;;;;;;5006902;28;19916;-63
2022/07/07 12:04:40;;;;;;;;;;;29.00;40.40;;;;;;5011557;28;19924;-61
2022/07/07 12:07:09;;;;;;;;;;;29.00;39.80;;;;;;5006719;28;19917;-61
2022/07/07 12:09:34;;;;;;;;;;;29.00;39.60;;;;;;5009245;28;20000;-63
2022/07/07 12:12:00;;;;;;;;;;;29.00;40.50;;;;;;4997305;28;20379;-62
2022/07/07 12:14:27;;;;;;;;;;;29.00;40.40;;;;;;4995973;28;19916;-61
2022/07/07 12:16:52;;;;;;;;;;;29.00;39.30;;;;;;4997114;28;19928;-61
2022/07/07 12:19:18;;;;;;;;;;;29.10;39.50;;;;;;4998571;28;19989;-62
2022/07/07 12:21:45;;;;;;;;;;;29.10;40.20;;;;;;4997609;28;19921;-61
2022/07/07 12:24:20;;;;;;;;;;;29.10;40.70;;;;;;4996221;28;19921;-64
2022/07/07 12:26:49;;;;;;;;;;;29.10;40.90;;;;;;5001401;28;19910;-63
2022/07/07 12:29:22;;;;;;;;;;;29.20;40.00;;;;;;4995793;28;19952;-63
2022/07/07 12:31:48;;;;;;;;;;;29.20;40.80;;;;;;4996719;28;19917;-62
2022/07/07 12:34:15;;;;;;;;;;;29.20;40.80;;;;;;4995239;28;19914;-62
2022/07/07 12:36:41;;;;;;;;;;;29.20;40.80;;;;;;5005651;28;20100;-61
2022/07/07 12:39:07;;;;;;;;;;;29.20;40.80;;;;;;5009620;28;19936;-61
2022/07/07 12:41:37;;;;;;;;;;;29.20;40.20;;;;;;5011255;28;20374;-63
2022/07/07 12:44:12;;;;;;;;;;;29.30;39.20;;;;;;5007372;28;19910;-62
2022/07/07 12:46:39;;;;;;;;;;;29.30;38.80;;;;;;5005825;28;20382;-64
2022/07/07 12:49:05;;;;;;;;;;;29.30;39.90;;;;;;5007463;28;19992;-61
2022/07/07 12:51:31;;;;;;;;;;;29.30;38.60;;;;;;5009790;28;20016;-62
2022/07/07 12:53:57;;;;;;;;;;;29.40;38.90;;;;;;5007074;28;20511;-63
2022/07/07 12:56:30;;;;;;;;;;;29.40;39.50;;;;;;5008771;28;20496;-62
2022/07/07 12:58:55;;;;;;;;;;;29.40;39.90;;;;;;5007793;28;20413;-63
2022/07/07 13:01:25;;;;;;;;;;;29.40;39.70;;;;;;5007791;28;19921;-62
2022/07/07 13:03:52;;;;;;;;;;;29.40;39.50;;;;;;5007749;28;19967;-63
2022/07/07 13:06:18;;;;;;;;;;;29.40;39.50;;;;;;5008514;28;20324;-65
2022/07/07 13:08:44;;;;;;;;;;;29.40;40.90;;;;;;5010935;28;19925;-63
2022/07/07 13:11:11;;;;;;;;;;;29.40;39.90;;;;;;5015743;28;19936;-63
2022/07/07 13:13:36;;;;;;;;;;;29.40;39.70;;;;;;5014301;28;20385;-64
2022/07/07 13:16:02;;;;;;;;;;;29.40;40.20;;;;;;5014389;28;19921;-61
2022/07/07 13:18:28;;;;;;;;;;;29.30;38.70;;;;;;5013218;28;20333;-65
2022/07/07 13:20:54;;;;;;;;;;;29.30;40.10;;;;;;5013832;28;19936;-64
2022/07/07 13:23:20;;;;;;;;;;;29.30;39.00;;;;;;5013594;28;19975;-63
2022/07/07 13:25:45;;;;;;;;;;;29.30;40.40;;;;;;5013429;28;20008;-64
2022/07/07 13:28:11;;;;;;;;;;;29.30;40.90;;;;;;5015007;28;19910;-69
2022/07/07 13:30:37;;;;;;;;;;;29.40;40.10;;;;;;5014180;28;19921;-65
2022/07/07 13:33:02;;;;;;;;;;;29.40;38.30;;;;;;5013651;28;19917;-65
2022/07/07 13:35:28;;;;;;;;;;;29.40;38.50;;;;;;5014124;28;19909;-62
2022/07/07 13:37:54;;;;;;;;;;;29.30;38.60;;;;;;5015018;28;19921;-67
2022/07/07 13:40:19;;;;;;;;;;;29.30;39.30;;;;;;5015473;28;19994;-63
2022/07/07 13:42:45;;;;;;;;;;;29.30;39.30;;;;;;5015560;28;19917;-63
2022/07/07 13:45:10;;;;;;;;;;;29.30;39.30;;;;;;5015187;28;19972;-63
2022/07/07 13:47:36;;;;;;;;;;;29.30;39.00;;;;;;5015415;28;19909;-62
2022/07/07 13:50:02;;;;;;;;;;;29.30;38.80;;;;;;5015590;28;19916;-65
2022/07/07 13:52:28;;;;;;;;;;;29.30;37.60;;;;;;5015178;28;19916;-63
2022/07/07 13:54:54;;;;;;;;;;;29.20;38.50;;;;;;5015537;28;19914;-64
2022/07/07 13:57:19;;;;;;;;;;;29.20;39.40;;;;;;5015554;28;20380;-64
2022/07/07 13:59:45;;;;;;;;;;;29.20;39.40;;;;;;5015301;28;19909;-63
2022/07/07 14:02:10;;;;;;;;;;;29.20;38.70;;;;;;5015389;28;20276;-62
2022/07/07 14:04:36;;;;;;;;;;;29.20;37.20;;;;;;5015254;28;19910;-63
2022/07/07 14:07:02;;;;;;;;;;;29.20;38.30;;;;;;5015044;28;19909;-61
2022/07/07 14:09:28;;;;;;;;;;;29.10;37.10;;;;;;5014489;28;20316;-61
2022/07/07 14:11:53;;;;;;;;;;;29.20;36.40;;;;;;5014828;28;19921;-62
2022/07/07 14:14:19;;;;;;;;;;;29.30;35.00;;;;;;5017179;28;19924;-61
2022/07/07 14:16:45;;;;;;;;;;;29.30;35.20;;;;;;5016851;28;19921;-61